Time;durP1;ratioP1;P1;durP2;ratioP2;P2;SDS_P1;SDS_P2;PMS_P1;PMS_P2;Temp;Humidity;BMP_temperature;BMP_pressure;BME280_temperature;BME280_humidity;BME280_pressure;Samples;Min_cycle;Max_cycle;Signal;HPM_P1;HPM_P2
2023/08/26 00:00:41;;;;;;;0.60;0.60;;;15.80;99.90;;;;;;5103528;28;20031;-75
2023/08/26 00:03:07;;;;;;;1.13;0.73;;;15.70;99.90;;;;;;5108252;28;20042;-76
2023/08/26 00:05:32;;;;;;;0.63;0.63;;;15.70;99.90;;;;;;5105832;28;20090;-76
2023/08/26 00:07:58;;;;;;;1.20;0.95;;;15.60;99.90;;;;;;5104896;28;20058;-76
2023/08/26 00:10:24;;;;;;;1.45;1.25;;;15.60;99.90;;;;;;5090220;28;20062;-76
2023/08/26 00:12:49;;;;;;;1.48;1.38;;;15.50;99.90;;;;;;5107814;28;20043;-76
2023/08/26 00:15:15;;;;;;;1.20;1.10;;;15.40;99.90;;;;;;5106695;28;20498;-75
2023/08/26 00:17:41;;;;;;;2.13;1.08;;;15.40;99.90;;;;;;5105410;28;20031;-76
2023/08/26 00:20:08;;;;;;;0.43;0.40;;;15.40;99.90;;;;;;5108441;28;20107;-75
2023/08/26 00:22:35;;;;;;;2.17;1.67;;;15.40;99.90;;;;;;5099696;28;20490;-76
2023/08/26 00:25:00;;;;;;;2.47;1.35;;;15.30;99.90;;;;;;5096652;28;20040;-76
2023/08/26 00:27:26;;;;;;;9.20;2.03;;;15.40;99.90;;;;;;5104476;28;20690;-77
2023/08/26 00:29:51;;;;;;;1.33;0.98;;;15.40;99.90;;;;;;5100812;28;20198;-76
2023/08/26 00:32:17;;;;;;;2.67;2.05;;;15.50;99.90;;;;;;5103370;27;20390;-76
2023/08/26 00:34:43;;;;;;;1.25;1.05;;;15.50;99.90;;;;;;5107344;28;20043;-76
2023/08/26 00:37:09;;;;;;;0.40;0.40;;;15.60;99.90;;;;;;5104559;28;20051;-76
2023/08/26 00:39:35;;;;;;;2.05;1.25;;;15.70;99.90;;;;;;5103627;28;20418;-76
2023/08/26 00:42:01;;;;;;;1.27;0.98;;;15.70;99.90;;;;;;5102955;28;20040;-76
2023/08/26 00:44:26;;;;;;;0.77;0.77;;;15.60;99.90;;;;;;5107927;28;20042;-76
2023/08/26 00:46:52;;;;;;;0.45;0.32;;;15.60;99.90;;;;;;5106864;28;20101;-76
2023/08/26 00:49:18;;;;;;;0.45;0.45;;;15.50;99.90;;;;;;5106149;28;20067;-76
2023/08/26 00:51:45;;;;;;;1.85;1.23;;;15.60;99.90;;;;;;5102930;28;20071;-76
2023/08/26 00:54:11;;;;;;;0.65;0.65;;;15.40;99.90;;;;;;5104826;28;20047;-76
2023/08/26 00:56:37;;;;;;;0.70;0.65;;;15.30;99.90;;;;;;5107137;28;20032;-76
2023/08/26 00:59:03;;;;;;;2.20;1.15;;;15.20;99.90;;;;;;5106411;28;20047;-76
2023/08/26 01:01:32;;;;;;;1.10;1.00;;;15.20;99.90;;;;;;5102581;28;20092;-77
2023/08/26 01:03:58;;;;;;;1.48;0.88;;;15.20;99.90;;;;;;5104078;28;20044;-76
2023/08/26 01:06:23;;;;;;;4.15;1.85;;;15.20;99.90;;;;;;5104917;28;20040;-76
2023/08/26 01:08:50;;;;;;;2.03;1.15;;;15.20;99.90;;;;;;5107429;28;20032;-77
2023/08/26 01:11:26;;;;;;;1.30;0.95;;;15.20;99.90;;;;;;5097284;28;20038;-77
2023/08/26 01:14:09;;;;;;;0.63;0.63;;;15.20;99.90;;;;;;5095860;28;20107;-77
2023/08/26 01:16:37;;;;;;;1.10;1.00;;;15.20;99.90;;;;;;5104394;28;20565;-75
2023/08/26 01:19:08;;;;;;;0.25;0.22;;;15.10;99.90;;;;;;5107090;28;20074;-75
2023/08/26 01:21:36;;;;;;;1.95;1.20;;;15.00;99.90;;;;;;5099365;28;20052;-75
2023/08/26 01:24:03;;;;;;;1.58;1.48;;;14.90;99.90;;;;;;5092487;28;20036;-75
2023/08/26 01:26:28;;;;;;;0.40;0.40;;;14.80;99.90;;;;;;5099419;28;20044;-75
2023/08/26 01:28:54;;;;;;;1.08;0.90;;;14.80;99.90;;;;;;5105310;28;20032;-75
2023/08/26 01:31:21;;;;;;;1.58;0.85;;;14.80;99.90;;;;;;5104246;28;20040;-75
2023/08/26 01:33:58;;;;;;;1.33;0.80;;;15.00;99.90;;;;;;5091954;28;20036;-76
2023/08/26 01:36:25;;;;;;;0.25;0.25;;;14.90;99.90;;;;;;5106467;28;20045;-75
2023/08/26 01:38:53;;;;;;;1.27;1.02;;;14.90;99.90;;;;;;5106587;28;20039;-75
2023/08/26 01:41:20;;;;;;;0.32;0.32;;;14.90;99.90;;;;;;5102204;28;20044;-76
2023/08/26 01:43:47;;;;;;;0.80;0.75;;;14.80;99.90;;;;;;5100880;28;20183;-76
2023/08/26 01:46:15;;;;;;;0.17;0.17;;;14.80;99.90;;;;;;5096984;28;20072;-75
2023/08/26 01:48:40;;;;;;;0.70;0.25;;;14.80;99.90;;;;;;5106116;28;20050;-75
2023/08/26 01:51:06;;;;;;;1.48;0.80;;;14.70;99.90;;;;;;5099074;28;20036;-76
2023/08/26 01:53:32;;;;;;;0.25;0.22;;;14.70;99.90;;;;;;5103105;28;20471;-76
2023/08/26 01:55:57;;;;;;;0.82;0.82;;;14.70;99.90;;;;;;5102374;28;20043;-76
2023/08/26 01:58:23;;;;;;;1.20;0.52;;;14.70;99.90;;;;;;5103671;28;20036;-76
2023/08/26 02:00:48;;;;;;;1.65;0.50;;;14.60;99.90;;;;;;5097926;28;20084;-76
2023/08/26 02:03:14;;;;;;;0.73;0.73;;;14.60;99.90;;;;;;5106164;28;20039;-75
2023/08/26 02:05:39;;;;;;;0.45;0.45;;;14.50;99.90;;;;;;5102769;28;20505;-75
2023/08/26 02:08:05;;;;;;;0.82;0.77;;;14.40;99.90;;;;;;5102785;28;20040;-76
2023/08/26 02:10:31;;;;;;;2.60;1.27;;;14.30;99.90;;;;;;5084100;28;20411;-76
2023/08/26 02:12:56;;;;;;;0.63;0.57;;;14.30;99.90;;;;;;5095393;28;20078;-76
2023/08/26 02:15:22;;;;;;;0.70;0.70;;;14.20;99.90;;;;;;5102570;28;20047;-76
2023/08/26 02:17:48;;;;;;;0.68;0.47;;;14.10;99.90;;;;;;5103835;28;20039;-76
2023/08/26 02:20:13;;;;;;;0.65;0.57;;;13.90;99.90;;;;;;5104672;28;20367;-76
2023/08/26 02:22:39;;;;;;;0.10;0.10;;;13.80;99.90;;;;;;5096979;28;20054;-75
2023/08/26 02:25:05;;;;;;;0.98;0.88;;;13.70;99.90;;;;;;5102564;28;20047;-75
2023/08/26 02:27:31;;;;;;;3.53;0.63;;;13.70;99.90;;;;;;5102298;28;20052;-76
2023/08/26 02:29:57;;;;;;;0.43;0.40;;;13.60;99.90;;;;;;5103617;28;20117;-76
2023/08/26 02:32:23;;;;;;;0.10;0.10;;;13.50;99.90;;;;;;5105127;28;20111;-76
2023/08/26 02:34:49;;;;;;;0.30;0.30;;;13.50;99.90;;;;;;5099635;28;20537;-76
2023/08/26 02:37:14;;;;;;;1.08;0.90;;;13.40;99.90;;;;;;5105423;28;20062;-76
2023/08/26 02:39:40;;;;;;;0.52;0.43;;;13.30;99.90;;;;;;5101989;28;20032;-76
2023/08/26 02:42:06;;;;;;;0.35;0.30;;;13.30;99.90;;;;;;5102313;28;20487;-76
2023/08/26 02:44:32;;;;;;;0.00;0.00;;;13.10;99.90;;;;;;5102035;28;20067;-75
2023/08/26 02:46:57;;;;;;;0.10;0.10;;;13.00;99.90;;;;;;5102385;28;20040;-76
2023/08/26 02:49:23;;;;;;;0.40;0.28;;;13.00;99.90;;;;;;5104897;28;20116;-76
2023/08/26 02:51:48;;;;;;;0.75;0.63;;;13.00;99.90;;;;;;5101793;28;20040;-77
2023/08/26 02:54:14;;;;;;;0.00;0.00;;;13.00;99.90;;;;;;5102741;28;20036;-76
2023/08/26 02:56:39;;;;;;;0.55;0.47;;;12.90;99.90;;;;;;5104559;28;20046;-76
2023/08/26 02:59:05;;;;;;;0.47;0.40;;;12.80;99.90;;;;;;5105234;28;20118;-76
2023/08/26 03:01:30;;;;;;;0.35;0.03;;;12.60;99.90;;;;;;5099079;28;20042;-76
2023/08/26 03:03:57;;;;;;;0.45;0.43;;;12.60;99.90;;;;;;5101952;28;20040;-75
2023/08/26 03:06:23;;;;;;;0.45;0.30;;;12.60;99.90;;;;;;5102938;28;20044;-75
2023/08/26 03:08:48;;;;;;;0.80;0.45;;;12.60;99.90;;;;;;5109209;28;20105;-75
2023/08/26 03:11:14;;;;;;;0.50;0.45;;;12.60;99.90;;;;;;5103902;28;20093;-76
2023/08/26 03:13:40;;;;;;;0.22;0.22;;;12.60;99.90;;;;;;5107186;28;20069;-76
2023/08/26 03:16:07;;;;;;;1.60;0.90;;;12.60;99.90;;;;;;5106012;28;20028;-76
2023/08/26 03:18:33;;;;;;;1.10;0.70;;;12.60;99.90;;;;;;5106585;28;20048;-75
2023/08/26 03:21:06;;;;;;;1.98;0.50;;;12.90;99.90;;;;;;5103482;28;20554;-76
2023/08/26 03:23:32;;;;;;;1.27;0.38;;;12.50;99.90;;;;;;5102308;28;20408;-76
2023/08/26 03:25:58;;;;;;;0.82;0.82;;;12.50;99.90;;;;;;5107106;28;20715;-76
2023/08/26 03:28:23;;;;;;;0.13;0.13;;;12.40;99.90;;;;;;5105232;28;20044;-77
2023/08/26 03:30:49;;;;;;;0.60;0.60;;;12.40;99.90;;;;;;5106455;28;20055;-76
2023/08/26 03:33:15;;;;;;;0.28;0.28;;;12.40;99.90;;;;;;5109701;28;20031;-76
2023/08/26 03:35:40;;;;;;;0.57;0.20;;;12.30;99.90;;;;;;5108536;28;20487;-76
2023/08/26 03:38:07;;;;;;;0.00;0.00;;;12.30;99.90;;;;;;5106350;28;20048;-76
2023/08/26 03:40:32;;;;;;;2.20;0.82;;;12.20;99.90;;;;;;5104178;28;20040;-77
2023/08/26 03:43:00;;;;;;;0.08;0.08;;;12.20;99.90;;;;;;5103844;28;20040;-76
2023/08/26 03:45:28;;;;;;;0.28;0.28;;;12.10;99.90;;;;;;5107873;28;20039;-77
2023/08/26 03:47:54;;;;;;;0.05;0.03;;;12.10;99.90;;;;;;5113446;28;20079;-77
2023/08/26 03:50:20;;;;;;;0.43;0.38;;;12.10;99.90;;;;;;5106339;28;20089;-77
2023/08/26 03:52:45;;;;;;;0.57;0.45;;;12.20;99.90;;;;;;5100416;28;20055;-77
2023/08/26 03:55:12;;;;;;;0.40;0.22;;;12.20;99.90;;;;;;5102217;28;20039;-77
2023/08/26 03:57:37;;;;;;;0.30;0.22;;;12.20;99.90;;;;;;5098900;28;20090;-77
2023/08/26 04:00:03;;;;;;;0.57;0.52;;;12.20;99.90;;;;;;5104580;28;20039;-77
2023/08/26 04:02:29;;;;;;;0.47;0.40;;;12.20;99.90;;;;;;5101044;28;20063;-77
2023/08/26 04:04:54;;;;;;;0.52;0.52;;;12.10;99.90;;;;;;5104465;28;20478;-77
2023/08/26 04:07:20;;;;;;;0.00;0.00;;;12.00;99.90;;;;;;5104486;28;20039;-77
2023/08/26 04:09:46;;;;;;;0.30;0.30;;;12.00;99.90;;;;;;5101167;28;20463;-77
2023/08/26 04:12:11;;;;;;;0.00;0.00;;;11.90;99.90;;;;;;5082099;28;20124;-77
2023/08/26 04:14:37;;;;;;;0.57;0.55;;;11.80;99.90;;;;;;5104495;28;20146;-77
2023/08/26 04:17:03;;;;;;;3.00;0.90;;;11.80;99.90;;;;;;5107054;28;20027;-77
2023/08/26 04:19:30;;;;;;;0.60;0.20;;;11.90;99.90;;;;;;5107210;28;20476;-77
2023/08/26 04:21:59;;;;;;;0.30;0.30;;;11.80;99.90;;;;;;5084381;28;20050;-77
2023/08/26 04:24:25;;;;;;;0.47;0.25;;;11.70;99.90;;;;;;5099700;28;20091;-76
2023/08/26 04:26:50;;;;;;;0.32;0.25;;;11.60;99.90;;;;;;5105992;28;20051;-76
2023/08/26 04:29:16;;;;;;;0.40;0.40;;;11.60;99.90;;;;;;5110680;28;20040;-77
2023/08/26 04:31:42;;;;;;;0.10;0.10;;;11.60;99.90;;;;;;5100245;28;20079;-77
2023/08/26 04:34:07;;;;;;;0.35;0.30;;;11.60;99.90;;;;;;5104014;28;20036;-77
2023/08/26 04:36:33;;;;;;;0.15;0.15;;;11.60;99.90;;;;;;5104301;28;20044;-77
2023/08/26 04:38:58;;;;;;;0.47;0.45;;;11.60;99.90;;;;;;5099544;28;20036;-77
2023/08/26 04:41:24;;;;;;;0.03;0.03;;;11.60;99.90;;;;;;5100894;28;20043;-77
2023/08/26 04:43:53;;;;;;;0.30;0.30;;;11.60;99.90;;;;;;5101976;28;20501;-77
2023/08/26 04:46:19;;;;;;;0.00;0.00;;;11.70;99.90;;;;;;5106658;28;20485;-77
2023/08/26 04:48:44;;;;;;;1.60;0.50;;;11.80;99.90;;;;;;5097628;28;20044;-76
2023/08/26 04:51:10;;;;;;;0.20;0.20;;;12.00;99.90;;;;;;5102601;28;20054;-76
2023/08/26 04:53:36;;;;;;;0.20;0.20;;;12.00;99.90;;;;;;5106905;28;20032;-76
2023/08/26 04:56:03;;;;;;;0.60;0.52;;;12.00;99.90;;;;;;5111111;28;20044;-76
2023/08/26 04:58:30;;;;;;;0.05;0.05;;;12.20;99.90;;;;;;5103671;27;20079;-76
2023/08/26 05:00:57;;;;;;;1.25;0.60;;;12.30;99.90;;;;;;5099623;28;20051;-76
2023/08/26 05:03:22;;;;;;;0.08;0.08;;;12.40;99.90;;;;;;5102242;28;20115;-76
2023/08/26 05:05:48;;;;;;;0.10;0.10;;;12.80;99.90;;;;;;5103162;28;20560;-76
2023/08/26 05:08:14;;;;;;;0.80;0.80;;;12.70;99.90;;;;;;5103264;28;20402;-76
2023/08/26 05:10:40;;;;;;;1.95;0.60;;;12.90;99.90;;;;;;5105710;28;20048;-76
2023/08/26 05:13:06;;;;;;;0.80;0.63;;;13.00;99.90;;;;;;5106131;28;20043;-76
2023/08/26 05:15:32;;;;;;;0.70;0.55;;;13.10;99.90;;;;;;5105465;28;20047;-76
2023/08/26 05:17:58;;;;;;;0.28;0.28;;;13.20;99.90;;;;;;5097028;28;20047;-76
2023/08/26 05:20:24;;;;;;;0.57;0.32;;;13.20;99.90;;;;;;5100071;28;20402;-76
2023/08/26 05:22:50;;;;;;;0.43;0.43;;;13.30;99.90;;;;;;5105352;28;20044;-76
2023/08/26 05:25:15;;;;;;;0.45;0.25;;;13.40;99.90;;;;;;5106250;28;20126;-76
2023/08/26 05:27:41;;;;;;;1.00;0.95;;;13.40;99.90;;;;;;5098357;28;20107;-76
2023/08/26 05:30:07;;;;;;;1.00;0.63;;;13.50;99.90;;;;;;5101836;28;20040;-76
2023/08/26 05:32:33;;;;;;;0.60;0.30;;;13.60;99.90;;;;;;5102602;28;20051;-76
2023/08/26 05:34:58;;;;;;;0.63;0.47;;;13.80;99.90;;;;;;5104637;28;20039;-76
2023/08/26 05:37:24;;;;;;;0.15;0.10;;;13.60;99.90;;;;;;5096916;28;20368;-76
2023/08/26 05:39:49;;;;;;;0.38;0.25;;;13.70;99.90;;;;;;5099429;28;20044;-76
2023/08/26 05:42:15;;;;;;;0.40;0.40;;;13.70;99.90;;;;;;5105588;28;20062;-76
2023/08/26 05:44:41;;;;;;;1.30;1.20;;;13.70;99.90;;;;;;5097387;28;20071;-76
2023/08/26 05:47:06;;;;;;;1.13;0.52;;;13.70;99.90;;;;;;5088662;28;20123;-76
2023/08/26 05:49:32;;;;;;;2.83;0.57;;;13.80;99.90;;;;;;5105325;28;20027;-76
2023/08/26 05:51:58;;;;;;;0.00;0.00;;;13.90;99.90;;;;;;5105349;28;20509;-76
2023/08/26 05:54:24;;;;;;;0.40;0.30;;;13.90;99.90;;;;;;5103102;28;20036;-76
2023/08/26 05:56:50;;;;;;;0.93;0.55;;;14.00;99.90;;;;;;5099345;28;20084;-76
2023/08/26 05:59:15;;;;;;;0.38;0.30;;;14.00;99.90;;;;;;5099326;28;20044;-76
2023/08/26 06:01:42;;;;;;;0.38;0.35;;;14.00;99.90;;;;;;5105134;28;20074;-76
2023/08/26 06:04:08;;;;;;;0.70;0.30;;;14.00;99.90;;;;;;5098149;28;20070;-76
2023/08/26 06:06:34;;;;;;;0.47;0.35;;;14.10;99.90;;;;;;5099313;28;20036;-76
2023/08/26 06:08:59;;;;;;;0.43;0.38;;;14.10;99.90;;;;;;5105580;27;20153;-76
2023/08/26 06:11:26;;;;;;;0.73;0.60;;;14.10;99.90;;;;;;5104261;28;20116;-76
2023/08/26 06:13:51;;;;;;;1.83;1.08;;;14.20;99.90;;;;;;5102001;28;20046;-76
2023/08/26 06:16:20;;;;;;;0.40;0.32;;;14.20;99.90;;;;;;5104717;28;20039;-76
2023/08/26 06:18:46;;;;;;;0.35;0.30;;;14.40;99.90;;;;;;5103104;28;20040;-76
2023/08/26 06:21:13;;;;;;;0.65;0.40;;;14.50;99.90;;;;;;5101913;28;20105;-76
2023/08/26 06:23:39;;;;;;;0.80;0.52;;;14.50;99.90;;;;;;5101141;28;20052;-76
2023/08/26 06:26:04;;;;;;;0.00;0.00;;;14.50;99.90;;;;;;5098368;28;20063;-76
2023/08/26 06:28:30;;;;;;;0.32;0.32;;;14.50;99.90;;;;;;5101730;28;20100;-76
2023/08/26 06:30:58;;;;;;;0.75;0.73;;;14.50;99.90;;;;;;5095551;28;20041;-76
2023/08/26 06:33:23;;;;;;;0.00;0.00;;;14.50;99.90;;;;;;5096118;28;20383;-76
2023/08/26 06:35:49;;;;;;;0.22;0.20;;;14.50;99.90;;;;;;5096059;28;20047;-76
2023/08/26 06:38:15;;;;;;;0.40;0.28;;;14.60;99.90;;;;;;5098180;28;20115;-76
2023/08/26 06:40:41;;;;;;;0.85;0.47;;;14.60;99.90;;;;;;5095889;28;20044;-76
2023/08/26 06:43:07;;;;;;;2.28;0.93;;;14.70;99.90;;;;;;5092953;28;20115;-76
2023/08/26 06:45:33;;;;;;;0.75;0.52;;;14.50;99.90;;;;;;5091937;28;20469;-76
2023/08/26 06:47:58;;;;;;;1.15;0.20;;;14.60;99.90;;;;;;5094053;28;20035;-76
2023/08/26 06:50:24;;;;;;;0.55;0.55;;;14.60;99.90;;;;;;5080140;28;20474;-76
2023/08/26 06:52:50;;;;;;;0.98;0.70;;;14.60;99.90;;;;;;5097673;28;20063;-76
2023/08/26 06:55:17;;;;;;;0.95;0.88;;;14.70;99.90;;;;;;5097513;28;20414;-76
2023/08/26 06:57:43;;;;;;;2.83;0.70;;;14.80;99.90;;;;;;5091340;28;20044;-79
2023/08/26 07:00:09;;;;;;;0.28;0.25;;;14.70;99.90;;;;;;5098195;28;20046;-76
2023/08/26 07:02:35;;;;;;;0.47;0.30;;;14.90;99.90;;;;;;5092534;28;20075;-76
2023/08/26 07:05:01;;;;;;;0.10;0.10;;;15.00;99.90;;;;;;5098322;28;20036;-76
2023/08/26 07:07:26;;;;;;;0.70;0.68;;;15.10;99.90;;;;;;5098793;28;20069;-76
2023/08/26 07:09:52;;;;;;;0.63;0.50;;;15.20;99.90;;;;;;5101355;28;20118;-75
2023/08/26 07:12:18;;;;;;;0.85;0.55;;;15.30;99.90;;;;;;5100652;28;20068;-75
2023/08/26 07:14:44;;;;;;;0.45;0.45;;;15.50;99.90;;;;;;5098274;28;20365;-75
2023/08/26 07:17:09;;;;;;;0.98;0.60;;;15.70;99.90;;;;;;5096339;28;20418;-76
2023/08/26 07:19:35;;;;;;;2.28;1.30;;;15.90;99.90;;;;;;5099100;28;20037;-76
2023/08/26 07:22:00;;;;;;;9.65;2.10;;;16.20;99.90;;;;;;5099399;28;20092;-74
2023/08/26 07:24:26;;;;;;;0.70;0.57;;;16.20;99.90;;;;;;5101353;28;20563;-76
2023/08/26 07:26:51;;;;;;;0.73;0.73;;;16.20;99.90;;;;;;5096025;28;20040;-75
2023/08/26 07:29:17;;;;;;;1.02;0.90;;;16.20;99.90;;;;;;5097666;28;20145;-76
2023/08/26 07:31:43;;;;;;;1.55;0.55;;;16.20;99.90;;;;;;5091467;28;20029;-76
2023/08/26 07:34:09;;;;;;;4.03;1.38;;;16.40;99.90;;;;;;5101220;28;20342;-76
2023/08/26 07:36:35;;;;;;;0.68;0.68;;;16.10;99.90;;;;;;5096955;28;20039;-76
2023/08/26 07:39:00;;;;;;;1.85;1.10;;;16.10;99.90;;;;;;5099112;28;20122;-76
2023/08/26 07:41:26;;;;;;;1.80;1.02;;;16.10;99.90;;;;;;5095184;28;20044;-76
2023/08/26 07:43:52;;;;;;;1.35;0.63;;;16.20;99.90;;;;;;5088308;28;20032;-76
2023/08/26 07:46:22;;;;;;;1.98;1.23;;;16.40;99.90;;;;;;5094018;28;20039;-75
2023/08/26 07:48:47;;;;;;;2.13;0.77;;;16.60;99.90;;;;;;5101026;28;20051;-76
2023/08/26 07:51:13;;;;;;;1.92;1.35;;;16.70;99.90;;;;;;5095348;28;20036;-76
2023/08/26 07:53:39;;;;;;;4.22;2.80;;;16.80;99.90;;;;;;5094295;28;20050;-76
2023/08/26 07:56:04;;;;;;;3.00;1.42;;;17.00;99.90;;;;;;5102663;28;20129;-75
2023/08/26 07:58:30;;;;;;;3.78;2.17;;;17.10;99.90;;;;;;5104335;28;20043;-75
2023/08/26 08:00:55;;;;;;;2.67;2.05;;;17.30;99.90;;;;;;5102090;28;20092;-75
2023/08/26 08:03:21;;;;;;;2.10;1.67;;;17.20;99.90;;;;;;5093074;28;20035;-76
2023/08/26 08:05:47;;;;;;;1.27;1.17;;;17.20;99.90;;;;;;5097345;28;20116;-76
2023/08/26 08:08:13;;;;;;;3.25;2.10;;;17.20;99.90;;;;;;5105423;28;20111;-75
2023/08/26 08:10:38;;;;;;;1.08;0.82;;;17.10;99.90;;;;;;5103559;28;20073;-75
2023/08/26 08:13:05;;;;;;;1.42;1.15;;;16.80;99.90;;;;;;5099883;28;20569;-75
2023/08/26 08:15:31;;;;;;;2.00;1.73;;;16.60;99.90;;;;;;5091256;28;20095;-75
2023/08/26 08:17:56;;;;;;;5.82;2.47;;;16.80;99.90;;;;;;5104235;28;20075;-75
2023/08/26 08:20:22;;;;;;;10.93;3.03;;;17.30;99.90;;;;;;5102676;28;20080;-75
2023/08/26 08:22:48;;;;;;;1.95;1.65;;;17.70;99.90;;;;;;5089394;28;20036;-75
2023/08/26 08:25:14;;;;;;;2.67;1.60;;;18.30;99.90;;;;;;5095060;28;20037;-75
2023/08/26 08:27:40;;;;;;;2.88;1.65;;;18.80;99.90;;;;;;5096509;28;20075;-75
2023/08/26 08:30:07;;;;;;;2.08;1.83;;;19.30;99.90;;;;;;5102081;28;20043;-75
2023/08/26 08:32:33;;;;;;;1.55;1.30;;;19.60;99.90;;;;;;5096778;28;20058;-75
2023/08/26 08:34:59;;;;;;;2.13;1.65;;;19.70;99.90;;;;;;5100582;28;20129;-75
2023/08/26 08:37:25;;;;;;;1.10;1.00;;;20.00;99.90;;;;;;5094569;28;20055;-75
2023/08/26 08:39:51;;;;;;;0.90;0.73;;;20.30;99.90;;;;;;5101005;28;20052;-75
2023/08/26 08:42:17;;;;;;;1.48;1.38;;;20.60;99.90;;;;;;5098634;28;20118;-75
2023/08/26 08:44:44;;;;;;;0.75;0.75;;;20.30;99.90;;;;;;5104065;28;20054;-75
2023/08/26 08:47:10;;;;;;;1.63;1.13;;;20.50;99.90;;;;;;5101423;28;20122;-75
2023/08/26 08:49:37;;;;;;;2.38;1.67;;;20.40;99.90;;;;;;5100469;28;20159;-75
2023/08/26 08:52:07;;;;;;;4.03;1.77;;;20.30;99.90;;;;;;5095106;28;20115;-75
2023/08/26 08:54:34;;;;;;;0.52;0.47;;;20.10;99.90;;;;;;5103681;28;20055;-76
2023/08/26 08:57:00;;;;;;;1.70;1.17;;;19.80;99.90;;;;;;5102694;28;20036;-76
2023/08/26 08:59:27;;;;;;;1.00;0.82;;;20.00;14.80;;;;;;5102835;28;20082;-76
2023/08/26 09:01:55;;;;;;;0.85;0.80;;;20.50;1.00;;;;;;5096104;27;20044;-76
2023/08/26 09:04:21;;;;;;;2.92;0.95;;;21.30;1.00;;;;;;5097926;28;20044;-76
2023/08/26 09:06:48;;;;;;;1.45;1.00;;;21.60;77.20;;;;;;5103414;28;20417;-76
2023/08/26 09:09:16;;;;;;;1.33;1.08;;;21.30;1.00;;;;;;5103206;27;20361;-76
2023/08/26 09:11:42;;;;;;;0.35;0.28;;;20.80;99.90;;;;;;5097955;28;20050;-76
2023/08/26 09:14:07;;;;;;;0.90;0.82;;;21.20;99.90;;;;;;5094969;28;20043;-76
2023/08/26 09:16:37;;;;;;;3.45;2.10;;;21.80;99.90;;;;;;5101214;28;20462;-76
2023/08/26 09:19:11;;;;;;;0.65;0.50;;;21.70;99.90;;;;;;5104007;28;20104;-78
2023/08/26 09:21:42;;;;;;;1.55;1.17;;;21.90;99.90;;;;;;5103890;28;20529;-78
2023/08/26 09:24:14;;;;;;;0.52;0.52;;;21.70;11.10;;;;;;5104451;28;20799;-78
2023/08/26 09:26:41;;;;;;;1.85;1.45;;;21.40;1.00;;;;;;5095760;28;20556;-77
2023/08/26 09:29:18;;;;;;;0.25;0.22;;;21.00;99.90;;;;;;5100134;28;20058;-78
2023/08/26 09:31:47;;;;;;;1.08;0.52;;;21.40;99.90;;;;;;5095701;28;20406;-78
2023/08/26 09:34:26;;;;;;;0.28;0.28;;;21.00;99.90;;;;;;5098394;28;20074;-78
2023/08/26 09:36:52;;;;;;;0.40;0.40;;;20.40;95.60;;;;;;5080395;28;20474;-78
2023/08/26 09:39:18;;;;;;;0.50;0.50;;;20.40;48.30;;;;;;5103745;28;20089;-78
2023/08/26 09:41:45;;;;;;;0.65;0.55;;;20.70;1.00;;;;;;5094305;28;20036;-77
2023/08/26 09:44:12;;;;;;;1.33;1.05;;;21.50;62.00;;;;;;5092449;28;20712;-78
2023/08/26 09:46:39;;;;;;;0.35;0.32;;;21.50;5.80;;;;;;5100233;28;20126;-77
2023/08/26 09:49:14;;;;;;;0.65;0.43;;;21.40;99.90;;;;;;5100430;28;20044;-76
2023/08/26 09:51:48;;;;;;;0.93;0.82;;;21.10;96.30;;;;;;5084835;28;20050;-76
2023/08/26 09:54:19;;;;;;;3.03;0.95;;;20.90;99.90;;;;;;5099688;28;20406;-77
2023/08/26 09:56:46;;;;;;;0.35;0.30;;;20.60;99.90;;;;;;5102315;28;20122;-76
2023/08/26 09:59:12;;;;;;;1.08;0.68;;;20.70;99.90;;;;;;5101481;28;20039;-77
2023/08/26 10:01:39;;;;;;;1.05;0.93;;;21.00;99.90;;;;;;5098944;28;20371;-75
2023/08/26 10:04:22;;;;;;;0.55;0.45;;;21.30;99.90;;;;;;5090749;28;20405;-75
2023/08/26 10:06:52;;;;;;;0.45;0.28;;;21.50;99.90;;;;;;5091989;28;20032;-75
2023/08/26 10:09:37;;;;;;;1.15;0.73;;;20.90;99.90;;;;;;5101642;28;20055;-75
2023/08/26 10:12:06;;;;;;;0.30;0.27;;;20.60;99.90;;;;;;5102890;28;20497;-75
2023/08/26 10:14:34;;;;;;;0.38;0.38;;;20.70;99.90;;;;;;5101164;28;20051;-76
2023/08/26 10:17:02;;;;;;;0.70;0.60;;;20.40;1.00;;;;;;5101627;28;20115;-76
2023/08/26 10:19:29;;;;;;;0.30;0.28;;;20.20;14.00;;;;;;5096142;27;20062;-75
2023/08/26 10:21:56;;;;;;;0.70;0.57;;;20.00;99.90;;;;;;5097577;28;20466;-77
2023/08/26 10:24:22;;;;;;;1.20;0.65;;;19.80;1.00;;;;;;5102020;28;20047;-75
2023/08/26 10:26:48;;;;;;;0.65;0.63;;;19.80;99.90;;;;;;5100053;28;20055;-76
2023/08/26 10:29:14;;;;;;;0.25;0.20;;;20.30;26.20;;;;;;5089089;28;20043;-77
2023/08/26 10:31:43;;;;;;;0.03;0.03;;;20.80;99.90;;;;;;5091129;28;20088;-77
2023/08/26 10:34:09;;;;;;;0.20;0.20;;;21.50;1.00;;;;;;5102143;28;20047;-77
2023/08/26 10:36:36;;;;;;;0.63;0.45;;;21.80;99.90;;;;;;5101771;28;20068;-77
2023/08/26 10:39:02;;;;;;;1.08;0.73;;;21.90;99.90;;;;;;5085909;28;20052;-77
2023/08/26 10:41:29;;;;;;;0.13;0.13;;;21.50;99.90;;;;;;5101578;28;20410;-77
2023/08/26 10:44:01;;;;;;;0.52;0.22;;;21.00;99.90;;;;;;5097087;28;20123;-77
2023/08/26 10:46:56;;;;;;;0.20;0.10;;;20.40;99.90;;;;;;5101632;28;20490;-77
2023/08/26 10:49:28;;;;;;;0.38;0.22;;;19.70;99.90;;;;;;5088826;28;20111;-76
2023/08/26 10:52:18;;;;;;;0.20;0.13;;;18.90;1.00;;;;;;5096003;28;20043;-76
2023/08/26 10:54:47;;;;;;;0.15;0.10;;;17.90;78.30;;;;;;5084715;28;20118;-77
2023/08/26 10:57:13;;;;;;;0.00;0.00;;;17.30;99.90;;;;;;5095912;28;20032;-76
2023/08/26 10:59:42;;;;;;;0.00;0.00;;;17.00;99.90;;;;;;5095332;28;20510;-76
2023/08/26 11:02:11;;;;;;;0.52;0.22;;;16.60;99.90;;;;;;5094409;28;20079;-76
2023/08/26 11:04:44;;;;;;;0.10;0.10;;;16.40;99.40;;;;;;5090308;28;20079;-77
2023/08/26 11:07:17;;;;;;;0.20;0.10;;;16.40;99.90;;;;;;5091170;28;20130;-77
2023/08/26 11:09:43;;;;;;;0.28;0.28;;;16.20;1.00;;;;;;5093176;28;20044;-75
2023/08/26 11:12:25;;;;;;;0.00;0.00;;;16.00;63.10;;;;;;5102263;28;20408;-76
2023/08/26 11:14:51;;;;;;;0.47;0.43;;;16.10;99.90;;;;;;5092968;28;20043;-76
2023/08/26 11:17:17;;;;;;;0.00;0.00;;;16.50;1.00;;;;;;5099353;28;20410;-76
2023/08/26 11:19:43;;;;;;;0.52;0.38;;;17.20;1.00;;;;;;5101749;28;20039;-76
2023/08/26 11:22:09;;;;;;;3.95;0.47;;;17.70;1.00;;;;;;5089828;28;20401;-76
2023/08/26 11:24:34;;;;;;;0.00;0.00;;;18.40;37.90;;;;;;5097627;28;20044;-76
2023/08/26 11:27:01;;;;;;;0.35;0.30;;;18.90;1.00;;;;;;5104394;28;20608;-75
2023/08/26 11:29:26;;;;;;;0.45;0.40;;;19.40;99.90;;;;;;5103068;28;20335;-75
2023/08/26 11:31:54;;;;;;;0.20;0.20;;;19.70;99.90;;;;;;5106126;28;20042;-75
2023/08/26 11:34:25;;;;;;;0.00;0.00;;;20.10;99.90;;;;;;5104882;28;20036;-75
2023/08/26 11:36:53;;;;;;;0.00;0.00;;;20.50;99.90;;;;;;5105896;28;20072;-75
2023/08/26 11:39:18;;;;;;;0.50;0.32;;;20.70;52.10;;;;;;5101654;28;20513;-75
2023/08/26 11:41:44;;;;;;;0.05;0.03;;;20.60;8.80;;;;;;5108175;27;20031;-75
2023/08/26 11:44:14;;;;;;;0.25;0.25;;;20.50;39.20;;;;;;5102258;28;20061;-75
2023/08/26 11:46:40;;;;;;;0.00;0.00;;;20.10;1.00;;;;;;5096910;28;20084;-76
2023/08/26 11:49:11;;;;;;;0.00;0.00;;;19.90;61.50;;;;;;5096174;28;20070;-75
2023/08/26 11:51:39;;;;;;;0.35;0.25;;;19.90;99.90;;;;;;5096287;28;20035;-75
2023/08/26 11:54:06;;;;;;;0.25;0.20;;;20.30;99.90;;;;;;5086567;28;20123;-76
2023/08/26 11:56:32;;;;;;;0.32;0.10;;;20.50;99.90;;;;;;5108651;28;20455;-75
2023/08/26 11:58:57;;;;;;;0.10;0.10;;;20.80;1.00;;;;;;5108267;28;20040;-76
2023/08/26 12:01:24;;;;;;;1.08;0.38;;;21.00;99.90;;;;;;5106284;28;20044;-76
2023/08/26 12:03:50;;;;;;;0.43;0.28;;;21.40;99.90;;;;;;5100280;28;20043;-76
2023/08/26 12:06:18;;;;;;;0.20;0.20;;;21.30;1.00;;;;;;5107603;28;20044;-75
2023/08/26 12:08:51;;;;;;;0.15;0.15;;;21.20;29.10;;;;;;5104762;28;20039;-75
2023/08/26 12:11:17;;;;;;;0.22;0.22;;;20.90;99.90;;;;;;5101572;28;20043;-76
2023/08/26 12:13:43;;;;;;;0.10;0.10;;;21.10;1.00;;;;;;5104934;28;20063;-76
2023/08/26 12:16:09;;;;;;;0.10;0.10;;;22.00;99.90;;;;;;5103973;28;20039;-75
2023/08/26 12:18:35;;;;;;;0.10;0.10;;;22.30;82.80;;;;;;5105473;28;20047;-75
2023/08/26 12:21:01;;;;;;;0.38;0.20;;;22.40;97.10;;;;;;5108028;28;20040;-75
2023/08/26 12:23:26;;;;;;;0.20;0.20;;;22.10;99.90;;;;;;5105724;28;20046;-75
2023/08/26 12:25:52;;;;;;;0.10;0.10;;;22.30;99.90;;;;;;5105062;28;20047;-76
2023/08/26 12:28:23;;;;;;;0.32;0.32;;;22.70;99.90;;;;;;5100992;28;20039;-75
2023/08/26 12:30:48;;;;;;;0.38;0.38;;;23.00;99.90;;;;;;5106198;28;20053;-75
2023/08/26 12:33:15;;;;;;;0.00;0.00;;;22.60;1.00;;;;;;5107130;28;20122;-75
2023/08/26 12:35:41;;;;;;;1.23;0.77;;;22.20;17.40;;;;;;5101576;28;20036;-75
2023/08/26 12:38:07;;;;;;;0.32;0.32;;;21.90;99.90;;;;;;5107601;28;20100;-75
2023/08/26 12:40:34;;;;;;;0.13;0.13;;;21.60;99.90;;;;;;5100303;28;20426;-76
2023/08/26 12:43:02;;;;;;;0.90;0.65;;;21.50;80.20;;;;;;5106435;28;20452;-75
2023/08/26 12:45:29;;;;;;;0.30;0.30;;;21.30;1.00;;;;;;5104247;28;20048;-75